createdAt,value
2022-08-22T00:00:03.279Z,26.6
2022-08-22T00:15:03.934Z,26.6
2022-08-22T00:30:06.004Z,26.6
2022-08-22T00:45:02.342Z,26.5
2022-08-22T01:00:06.194Z,26.4
2022-08-22T01:15:02.962Z,26.4
2022-08-22T01:45:03.260Z,26.4
2022-08-22T02:00:06.366Z,26.4
2022-08-22T02:15:03.123Z,26.3
2022-08-22T02:30:03.380Z,26.2
2022-08-22T02:45:05.041Z,26.1
2022-08-22T03:00:03.951Z,26
2022-08-22T03:15:04.005Z,25.9
2022-08-22T03:30:04.085Z,25.8
2022-08-22T03:45:05.149Z,25.8
2022-08-22T04:00:01.989Z,25.7
2022-08-22T04:15:04.256Z,25.9
2022-08-22T04:30:05.297Z,25.9
2022-08-22T04:45:06.209Z,26
2022-08-22T05:00:04.948Z,26
2022-08-22T05:15:02.442Z,26
2022-08-22T05:30:05.234Z,25.8
2022-08-22T05:45:04.176Z,25.8
2022-08-22T06:00:06.285Z,25.8
2022-08-22T06:15:03.041Z,25.7
2022-08-22T06:30:02.276Z,25.7
2022-08-22T06:45:04.116Z,25.6
2022-08-22T07:00:02.085Z,25.6
2022-08-22T07:15:02.904Z,25.6
2022-08-22T07:30:05.129Z,25.6
2022-08-22T07:45:02.015Z,25.6
2022-08-22T08:00:06.371Z,25.6
2022-08-22T08:15:06.100Z,25.5
2022-08-22T08:30:06.448Z,25.5
2022-08-22T08:45:03.203Z,25.5
2022-08-22T09:00:01.886Z,25.6
2022-08-22T09:15:02.298Z,25.7
2022-08-22T09:30:02.109Z,25.7
2022-08-22T09:45:01.922Z,25.7
2022-08-22T10:00:06.292Z,25.7
2022-08-22T10:15:06.038Z,25.7
2022-08-22T10:30:05.281Z,25.7
2022-08-22T10:45:02.204Z,25.6
2022-08-22T11:00:04.956Z,25.6
2022-08-22T11:15:03.407Z,25.6
2022-08-22T11:30:05.095Z,25.7
2022-08-22T11:45:01.992Z,25.8
2022-08-22T12:00:02.345Z,25.9
2022-08-22T12:15:05.189Z,26
2022-08-22T12:30:05.034Z,26
2022-08-22T12:45:01.990Z,26
2022-08-22T13:00:03.357Z,26
2022-08-22T13:15:05.056Z,25.9
2022-08-22T13:30:04.446Z,25.9
2022-08-22T13:45:04.920Z,26
2022-08-22T14:00:02.350Z,26
2022-08-22T14:15:06.179Z,26
2022-08-22T14:30:04.435Z,26.1
2022-08-22T14:45:05.952Z,26.1
2022-08-22T15:00:02.267Z,26.1
2022-08-22T15:15:02.081Z,26.1
2022-08-22T15:30:02.508Z,26.1
2022-08-22T15:45:06.287Z,26.1
2022-08-22T16:00:06.064Z,26.1
2022-08-22T16:15:05.343Z,26.1
2022-08-22T16:30:02.235Z,26.1
2022-08-22T16:45:03.063Z,26.1
2022-08-22T17:00:02.308Z,26.1
2022-08-22T17:15:04.080Z,26.1
2022-08-22T17:30:04.136Z,26.1
2022-08-22T17:45:06.203Z,26.2
2022-08-22T18:00:01.995Z,26.2
2022-08-22T18:15:04.407Z,26.2
2022-08-22T18:30:03.895Z,26.2
2022-08-22T18:45:01.957Z,26.1
2022-08-22T19:00:03.339Z,26.1
2022-08-22T19:15:02.932Z,26.1
2022-08-22T19:30:05.024Z,26.1
2022-08-22T19:45:05.942Z,26.1
2022-08-22T20:00:05.281Z,26.1
2022-08-22T20:15:06.195Z,26.1
2022-08-22T20:30:04.963Z,26.1
2022-08-22T20:45:05.425Z,26.1
2022-08-22T21:00:02.351Z,26.1
2022-08-22T21:15:06.156Z,26.1
2022-08-22T21:30:06.458Z,26.1
2022-08-22T21:45:03.231Z,26
2022-08-22T22:00:06.434Z,26.1
2022-08-22T22:15:02.113Z,26
2022-08-22T22:30:06.453Z,26.1
2022-08-22T22:45:04.220Z,26.1
2022-08-22T23:00:03.317Z,26
2022-08-22T23:15:05.936Z,26.1
2022-08-22T23:30:04.291Z,26
2022-08-22T23:45:05.329Z,26
